sensor_id;sensor_type;location;lat;lon;timestamp;P1;durP1;ratioP1;P2;durP2;ratioP2
19205;SDS011;59358;52.134;5.596;2023-07-13T00:01:45;11.30;;;3.25;;
19205;SDS011;59358;52.134;5.596;2023-07-13T00:04:15;11.68;;;3.35;;
19205;SDS011;59358;52.134;5.596;2023-07-13T00:06:42;12.30;;;3.67;;
19205;SDS011;59358;52.134;5.596;2023-07-13T00:09:10;14.07;;;4.47;;
19205;SDS011;59358;52.134;5.596;2023-07-13T00:11:40;14.90;;;4.20;;
19205;SDS011;59358;52.134;5.596;2023-07-13T00:14:07;9.10;;;3.85;;
19205;SDS011;59358;52.134;5.596;2023-07-13T00:16:35;14.02;;;4.03;;
19205;SDS011;59358;52.134;5.596;2023-07-13T00:19:05;11.00;;;3.47;;
19205;SDS011;59358;52.134;5.596;2023-07-13T00:21:32;10.63;;;4.13;;
19205;SDS011;59358;52.134;5.596;2023-07-13T00:24:00;12.68;;;3.40;;
19205;SDS011;59358;52.134;5.596;2023-07-13T00:26:28;15.90;;;4.35;;
19205;SDS011;59358;52.134;5.596;2023-07-13T00:28:56;14.77;;;4.22;;
19205;SDS011;59358;52.134;5.596;2023-07-13T00:31:23;8.07;;;3.55;;
19205;SDS011;59358;52.134;5.596;2023-07-13T00:33:50;11.05;;;3.97;;
19205;SDS011;59358;52.134;5.596;2023-07-13T00:36:17;10.32;;;4.15;;
19205;SDS011;59358;52.134;5.596;2023-07-13T00:38:46;10.05;;;3.45;;
19205;SDS011;59358;52.134;5.596;2023-07-13T00:41:13;10.40;;;3.70;;
19205;SDS011;59358;52.134;5.596;2023-07-13T00:43:40;11.85;;;4.28;;
19205;SDS011;59358;52.134;5.596;2023-07-13T00:46:14;12.18;;;3.85;;
19205;SDS011;59358;52.134;5.596;2023-07-13T00:48:43;11.75;;;4.13;;
19205;SDS011;59358;52.134;5.596;2023-07-13T00:51:12;12.80;;;3.90;;
19205;SDS011;59358;52.134;5.596;2023-07-13T00:53:42;8.75;;;3.83;;
19205;SDS011;59358;52.134;5.596;2023-07-13T00:56:09;12.43;;;4.47;;
19205;SDS011;59358;52.134;5.596;2023-07-13T00:58:36;8.60;;;4.25;;
19205;SDS011;59358;52.134;5.596;2023-07-13T01:01:04;12.07;;;3.50;;
19205;SDS011;59358;52.134;5.596;2023-07-13T01:03:32;10.10;;;3.58;;
19205;SDS011;59358;52.134;5.596;2023-07-13T01:06:00;13.52;;;4.35;;
19205;SDS011;59358;52.134;5.596;2023-07-13T01:08:29;11.43;;;3.70;;
19205;SDS011;59358;52.134;5.596;2023-07-13T01:10:56;8.13;;;3.50;;
19205;SDS011;59358;52.134;5.596;2023-07-13T01:13:24;12.43;;;3.85;;
19205;SDS011;59358;52.134;5.596;2023-07-13T01:15:52;11.38;;;3.80;;
19205;SDS011;59358;52.134;5.596;2023-07-13T01:18:22;14.88;;;3.75;;
19205;SDS011;59358;52.134;5.596;2023-07-13T01:20:54;7.32;;;3.40;;
19205;SDS011;59358;52.134;5.596;2023-07-13T01:23:21;8.52;;;3.50;;
19205;SDS011;59358;52.134;5.596;2023-07-13T01:25:50;12.48;;;3.88;;
19205;SDS011;59358;52.134;5.596;2023-07-13T01:28:18;8.02;;;3.30;;
19205;SDS011;59358;52.134;5.596;2023-07-13T01:30:46;11.43;;;3.53;;
19205;SDS011;59358;52.134;5.596;2023-07-13T01:33:13;11.90;;;3.60;;
19205;SDS011;59358;52.134;5.596;2023-07-13T01:35:42;11.55;;;3.65;;
19205;SDS011;59358;52.134;5.596;2023-07-13T01:38:13;11.68;;;3.67;;
19205;SDS011;59358;52.134;5.596;2023-07-13T01:40:42;11.98;;;3.97;;
19205;SDS011;59358;52.134;5.596;2023-07-13T01:43:10;12.63;;;3.60;;
19205;SDS011;59358;52.134;5.596;2023-07-13T01:45:38;10.77;;;4.00;;
19205;SDS011;59358;52.134;5.596;2023-07-13T01:48:05;7.53;;;3.38;;
19205;SDS011;59358;52.134;5.596;2023-07-13T01:50:32;11.00;;;4.35;;
19205;SDS011;59358;52.134;5.596;2023-07-13T01:53:00;11.25;;;4.22;;
19205;SDS011;59358;52.134;5.596;2023-07-13T01:55:29;11.20;;;3.97;;
19205;SDS011;59358;52.134;5.596;2023-07-13T01:57:56;9.85;;;3.58;;
19205;SDS011;59358;52.134;5.596;2023-07-13T02:00:23;11.98;;;3.65;;
19205;SDS011;59358;52.134;5.596;2023-07-13T02:02:51;9.50;;;3.67;;
19205;SDS011;59358;52.134;5.596;2023-07-13T02:05:18;12.75;;;4.75;;
19205;SDS011;59358;52.134;5.596;2023-07-13T02:07:45;9.35;;;3.83;;
19205;SDS011;59358;52.134;5.596;2023-07-13T02:10:12;10.98;;;3.60;;
19205;SDS011;59358;52.134;5.596;2023-07-13T02:12:40;12.10;;;4.07;;
19205;SDS011;59358;52.134;5.596;2023-07-13T02:15:08;9.00;;;3.63;;
19205;SDS011;59358;52.134;5.596;2023-07-13T02:17:36;10.52;;;3.63;;
19205;SDS011;59358;52.134;5.596;2023-07-13T02:20:04;11.18;;;3.80;;
19205;SDS011;59358;52.134;5.596;2023-07-13T02:22:33;11.85;;;3.70;;
19205;SDS011;59358;52.134;5.596;2023-07-13T02:25:00;8.20;;;4.40;;
19205;SDS011;59358;52.134;5.596;2023-07-13T02:27:27;12.05;;;4.90;;
19205;SDS011;59358;52.134;5.596;2023-07-13T02:29:55;13.52;;;4.05;;
19205;SDS011;59358;52.134;5.596;2023-07-13T02:32:22;12.77;;;3.50;;
19205;SDS011;59358;52.134;5.596;2023-07-13T02:34:50;13.63;;;4.53;;
19205;SDS011;59358;52.134;5.596;2023-07-13T02:37:18;8.55;;;3.90;;
19205;SDS011;59358;52.134;5.596;2023-07-13T02:39:46;13.05;;;4.07;;
19205;SDS011;59358;52.134;5.596;2023-07-13T02:42:13;9.35;;;4.32;;
19205;SDS011;59358;52.134;5.596;2023-07-13T02:44:40;12.95;;;4.93;;
19205;SDS011;59358;52.134;5.596;2023-07-13T02:47:09;18.23;;;4.72;;
19205;SDS011;59358;52.134;5.596;2023-07-13T02:49:36;14.07;;;4.50;;
19205;SDS011;59358;52.134;5.596;2023-07-13T02:52:03;15.75;;;4.45;;
19205;SDS011;59358;52.134;5.596;2023-07-13T02:54:30;15.57;;;4.93;;
19205;SDS011;59358;52.134;5.596;2023-07-13T02:56:58;12.70;;;4.72;;
19205;SDS011;59358;52.134;5.596;2023-07-13T02:59:25;14.07;;;4.45;;
19205;SDS011;59358;52.134;5.596;2023-07-13T03:01:52;12.20;;;4.65;;
19205;SDS011;59358;52.134;5.596;2023-07-13T03:04:20;13.77;;;5.10;;
19205;SDS011;59358;52.134;5.596;2023-07-13T03:06:47;13.88;;;5.22;;
19205;SDS011;59358;52.134;5.596;2023-07-13T03:09:14;15.85;;;5.30;;
19205;SDS011;59358;52.134;5.596;2023-07-13T03:11:41;16.02;;;5.53;;
19205;SDS011;59358;52.134;5.596;2023-07-13T03:14:08;16.30;;;5.45;;
19205;SDS011;59358;52.134;5.596;2023-07-13T03:16:35;14.30;;;5.18;;
19205;SDS011;59358;52.134;5.596;2023-07-13T03:19:02;13.57;;;4.60;;
19205;SDS011;59358;52.134;5.596;2023-07-13T03:21:31;17.67;;;5.88;;
19205;SDS011;59358;52.134;5.596;2023-07-13T03:23:58;14.85;;;6.50;;
19205;SDS011;59358;52.134;5.596;2023-07-13T03:26:25;12.88;;;5.63;;
19205;SDS011;59358;52.134;5.596;2023-07-13T03:28:52;13.85;;;6.18;;
19205;SDS011;59358;52.134;5.596;2023-07-13T03:31:19;22.25;;;7.00;;
19205;SDS011;59358;52.134;5.596;2023-07-13T03:33:48;15.88;;;5.90;;
19205;SDS011;59358;52.134;5.596;2023-07-13T03:36:16;19.35;;;5.70;;
19205;SDS011;59358;52.134;5.596;2023-07-13T03:38:47;16.00;;;5.45;;
19205;SDS011;59358;52.134;5.596;2023-07-13T03:41:14;22.63;;;6.03;;
19205;SDS011;59358;52.134;5.596;2023-07-13T03:43:42;15.65;;;5.50;;
19205;SDS011;59358;52.134;5.596;2023-07-13T03:46:09;17.98;;;5.97;;
19205;SDS011;59358;52.134;5.596;2023-07-13T03:48:36;12.80;;;5.65;;
19205;SDS011;59358;52.134;5.596;2023-07-13T03:51:05;15.68;;;5.82;;
19205;SDS011;59358;52.134;5.596;2023-07-13T03:53:32;18.95;;;6.22;;
19205;SDS011;59358;52.134;5.596;2023-07-13T03:56:00;18.13;;;7.38;;
19205;SDS011;59358;52.134;5.596;2023-07-13T03:58:31;16.45;;;7.05;;
19205;SDS011;59358;52.134;5.596;2023-07-13T04:01:00;18.30;;;6.25;;
19205;SDS011;59358;52.134;5.596;2023-07-13T04:03:28;16.33;;;6.43;;
19205;SDS011;59358;52.134;5.596;2023-07-13T04:05:57;16.65;;;6.60;;
19205;SDS011;59358;52.134;5.596;2023-07-13T04:08:25;18.38;;;6.88;;
19205;SDS011;59358;52.134;5.596;2023-07-13T04:10:53;17.50;;;6.60;;
19205;SDS011;59358;52.134;5.596;2023-07-13T04:13:22;23.13;;;6.93;;
19205;SDS011;59358;52.134;5.596;2023-07-13T04:15:50;21.00;;;5.93;;
19205;SDS011;59358;52.134;5.596;2023-07-13T04:18:18;17.60;;;6.78;;
19205;SDS011;59358;52.134;5.596;2023-07-13T04:20:45;22.65;;;6.53;;
19205;SDS011;59358;52.134;5.596;2023-07-13T04:23:13;19.00;;;5.55;;
19205;SDS011;59358;52.134;5.596;2023-07-13T04:25:43;16.58;;;6.75;;
19205;SDS011;59358;52.134;5.596;2023-07-13T04:28:10;22.73;;;6.25;;
19205;SDS011;59358;52.134;5.596;2023-07-13T04:30:39;25.40;;;6.55;;
19205;SDS011;59358;52.134;5.596;2023-07-13T04:33:05;24.60;;;7.10;;
19205;SDS011;59358;52.134;5.596;2023-07-13T04:35:33;19.50;;;6.43;;
19205;SDS011;59358;52.134;5.596;2023-07-13T04:38:01;16.20;;;6.60;;
19205;SDS011;59358;52.134;5.596;2023-07-13T04:40:28;15.27;;;6.32;;
19205;SDS011;59358;52.134;5.596;2023-07-13T04:42:55;19.55;;;6.10;;
19205;SDS011;59358;52.134;5.596;2023-07-13T04:45:22;16.77;;;6.38;;
19205;SDS011;59358;52.134;5.596;2023-07-13T04:47:51;18.05;;;7.13;;
19205;SDS011;59358;52.134;5.596;2023-07-13T04:50:18;18.55;;;7.03;;
19205;SDS011;59358;52.134;5.596;2023-07-13T04:52:48;17.83;;;6.35;;
19205;SDS011;59358;52.134;5.596;2023-07-13T04:55:15;21.85;;;7.43;;
19205;SDS011;59358;52.134;5.596;2023-07-13T04:57:43;20.52;;;7.45;;
19205;SDS011;59358;52.134;5.596;2023-07-13T05:00:10;28.00;;;7.57;;
19205;SDS011;59358;52.134;5.596;2023-07-13T05:02:38;22.27;;;7.43;;
19205;SDS011;59358;52.134;5.596;2023-07-13T05:05:08;18.73;;;6.90;;
19205;SDS011;59358;52.134;5.596;2023-07-13T05:07:35;16.90;;;6.40;;
19205;SDS011;59358;52.134;5.596;2023-07-13T05:10:02;26.10;;;8.20;;
19205;SDS011;59358;52.134;5.596;2023-07-13T05:12:30;22.67;;;7.70;;
19205;SDS011;59358;52.134;5.596;2023-07-13T05:14:57;23.10;;;7.88;;
19205;SDS011;59358;52.134;5.596;2023-07-13T05:17:24;20.17;;;7.07;;
19205;SDS011;59358;52.134;5.596;2023-07-13T05:19:51;19.15;;;6.60;;
19205;SDS011;59358;52.134;5.596;2023-07-13T05:22:20;20.45;;;7.22;;
19205;SDS011;59358;52.134;5.596;2023-07-13T05:24:47;17.08;;;6.75;;
19205;SDS011;59358;52.134;5.596;2023-07-13T05:27:14;19.13;;;7.57;;
19205;SDS011;59358;52.134;5.596;2023-07-13T05:29:41;23.27;;;7.20;;
19205;SDS011;59358;52.134;5.596;2023-07-13T05:32:08;27.83;;;8.70;;
19205;SDS011;59358;52.134;5.596;2023-07-13T05:34:35;19.85;;;8.52;;
19205;SDS011;59358;52.134;5.596;2023-07-13T05:37:02;20.83;;;8.05;;
19205;SDS011;59358;52.134;5.596;2023-07-13T05:39:30;16.25;;;7.15;;
19205;SDS011;59358;52.134;5.596;2023-07-13T05:41:57;19.38;;;8.02;;
19205;SDS011;59358;52.134;5.596;2023-07-13T05:44:24;20.42;;;7.35;;
19205;SDS011;59358;52.134;5.596;2023-07-13T05:46:52;18.65;;;8.32;;
19205;SDS011;59358;52.134;5.596;2023-07-13T05:49:20;30.67;;;8.48;;
19205;SDS011;59358;52.134;5.596;2023-07-13T05:51:47;21.42;;;9.55;;
19205;SDS011;59358;52.134;5.596;2023-07-13T05:54:14;23.33;;;8.73;;
19205;SDS011;59358;52.134;5.596;2023-07-13T05:56:42;25.75;;;9.15;;
19205;SDS011;59358;52.134;5.596;2023-07-13T05:59:09;26.58;;;10.10;;
19205;SDS011;59358;52.134;5.596;2023-07-13T06:01:36;31.15;;;10.88;;
19205;SDS011;59358;52.134;5.596;2023-07-13T06:04:04;25.40;;;11.15;;
19205;SDS011;59358;52.134;5.596;2023-07-13T06:06:31;26.27;;;11.10;;
19205;SDS011;59358;52.134;5.596;2023-07-13T06:08:58;24.27;;;11.80;;
19205;SDS011;59358;52.134;5.596;2023-07-13T06:11:26;39.88;;;12.57;;
19205;SDS011;59358;52.134;5.596;2023-07-13T06:13:56;30.67;;;12.60;;
19205;SDS011;59358;52.134;5.596;2023-07-13T06:16:23;25.50;;;11.57;;
19205;SDS011;59358;52.134;5.596;2023-07-13T06:18:51;28.27;;;12.07;;
19205;SDS011;59358;52.134;5.596;2023-07-13T06:21:18;26.30;;;12.65;;
19205;SDS011;59358;52.134;5.596;2023-07-13T06:23:47;26.05;;;12.95;;
19205;SDS011;59358;52.134;5.596;2023-07-13T06:26:15;25.20;;;12.05;;
19205;SDS011;59358;52.134;5.596;2023-07-13T06:28:43;24.27;;;12.20;;
19205;SDS011;59358;52.134;5.596;2023-07-13T06:31:12;31.27;;;12.60;;
19205;SDS011;59358;52.134;5.596;2023-07-13T06:33:39;23.13;;;12.18;;
19205;SDS011;59358;52.134;5.596;2023-07-13T06:36:07;29.83;;;13.50;;
19205;SDS011;59358;52.134;5.596;2023-07-13T06:38:35;28.02;;;12.93;;
19205;SDS011;59358;52.134;5.596;2023-07-13T06:41:03;22.02;;;12.98;;
19205;SDS011;59358;52.134;5.596;2023-07-13T06:43:31;30.45;;;14.90;;
19205;SDS011;59358;52.134;5.596;2023-07-13T06:45:59;32.47;;;14.43;;
19205;SDS011;59358;52.134;5.596;2023-07-13T06:48:27;33.85;;;15.70;;
19205;SDS011;59358;52.134;5.596;2023-07-13T06:50:54;29.83;;;13.45;;
19205;SDS011;59358;52.134;5.596;2023-07-13T06:53:22;27.92;;;13.70;;
19205;SDS011;59358;52.134;5.596;2023-07-13T06:55:49;30.42;;;14.95;;
19205;SDS011;59358;52.134;5.596;2023-07-13T06:58:17;32.67;;;14.15;;
19205;SDS011;59358;52.134;5.596;2023-07-13T07:00:45;28.83;;;14.38;;
19205;SDS011;59358;52.134;5.596;2023-07-13T07:03:13;30.63;;;15.18;;
19205;SDS011;59358;52.134;5.596;2023-07-13T07:05:41;29.15;;;13.93;;
19205;SDS011;59358;52.134;5.596;2023-07-13T07:08:08;27.35;;;14.70;;
19205;SDS011;59358;52.134;5.596;2023-07-13T07:10:35;39.78;;;15.75;;
19205;SDS011;59358;52.134;5.596;2023-07-13T07:13:03;27.05;;;15.73;;
19205;SDS011;59358;52.134;5.596;2023-07-13T07:15:30;27.65;;;14.90;;
19205;SDS011;59358;52.134;5.596;2023-07-13T07:17:57;22.20;;;13.93;;
19205;SDS011;59358;52.134;5.596;2023-07-13T07:20:24;27.50;;;14.38;;
19205;SDS011;59358;52.134;5.596;2023-07-13T07:22:53;32.58;;;15.95;;
19205;SDS011;59358;52.134;5.596;2023-07-13T07:25:20;27.33;;;15.68;;
19205;SDS011;59358;52.134;5.596;2023-07-13T07:27:47;28.15;;;16.88;;
19205;SDS011;59358;52.134;5.596;2023-07-13T07:30:14;29.63;;;15.80;;
19205;SDS011;59358;52.134;5.596;2023-07-13T07:32:41;25.30;;;14.02;;
19205;SDS011;59358;52.134;5.596;2023-07-13T07:35:08;32.42;;;14.43;;
19205;SDS011;59358;52.134;5.596;2023-07-13T07:37:35;29.35;;;15.52;;
19205;SDS011;59358;52.134;5.596;2023-07-13T07:40:04;32.33;;;14.45;;
19205;SDS011;59358;52.134;5.596;2023-07-13T07:42:33;27.50;;;14.80;;
19205;SDS011;59358;52.134;5.596;2023-07-13T07:45:00;26.83;;;14.80;;
19205;SDS011;59358;52.134;5.596;2023-07-13T07:47:27;22.05;;;14.80;;
19205;SDS011;59358;52.134;5.596;2023-07-13T07:49:54;32.20;;;15.43;;
19205;SDS011;59358;52.134;5.596;2023-07-13T07:52:22;28.67;;;16.55;;
19205;SDS011;59358;52.134;5.596;2023-07-13T07:54:49;26.63;;;16.83;;
19205;SDS011;59358;52.134;5.596;2023-07-13T07:57:17;28.13;;;16.88;;
19205;SDS011;59358;52.134;5.596;2023-07-13T07:59:45;33.60;;;17.20;;
19205;SDS011;59358;52.134;5.596;2023-07-13T08:02:13;26.98;;;15.13;;
19205;SDS011;59358;52.134;5.596;2023-07-13T08:04:40;25.77;;;15.32;;
19205;SDS011;59358;52.134;5.596;2023-07-13T08:07:07;28.08;;;15.20;;
19205;SDS011;59358;52.134;5.596;2023-07-13T08:09:34;26.27;;;16.15;;
19205;SDS011;59358;52.134;5.596;2023-07-13T08:12:01;26.25;;;14.10;;
19205;SDS011;59358;52.134;5.596;2023-07-13T08:14:30;26.90;;;13.45;;
19205;SDS011;59358;52.134;5.596;2023-07-13T08:16:57;26.83;;;13.25;;
19205;SDS011;59358;52.134;5.596;2023-07-13T08:19:24;21.30;;;12.35;;
19205;SDS011;59358;52.134;5.596;2023-07-13T08:21:51;20.08;;;13.30;;
19205;SDS011;59358;52.134;5.596;2023-07-13T08:24:18;17.67;;;10.57;;
19205;SDS011;59358;52.134;5.596;2023-07-13T08:26:48;20.02;;;9.52;;
19205;SDS011;59358;52.134;5.596;2023-07-13T08:29:15;20.50;;;11.23;;
19205;SDS011;59358;52.134;5.596;2023-07-13T08:31:44;19.08;;;10.27;;
19205;SDS011;59358;52.134;5.596;2023-07-13T08:34:11;22.15;;;11.20;;
19205;SDS011;59358;52.134;5.596;2023-07-13T08:36:39;18.48;;;11.35;;
19205;SDS011;59358;52.134;5.596;2023-07-13T08:39:07;23.88;;;10.23;;
19205;SDS011;59358;52.134;5.596;2023-07-13T08:41:34;14.80;;;8.27;;
19205;SDS011;59358;52.134;5.596;2023-07-13T08:44:03;14.75;;;8.30;;
19205;SDS011;59358;52.134;5.596;2023-07-13T08:46:39;18.48;;;10.20;;
19205;SDS011;59358;52.134;5.596;2023-07-13T08:49:10;19.83;;;9.68;;
19205;SDS011;59358;52.134;5.596;2023-07-13T08:51:41;19.30;;;8.50;;
19205;SDS011;59358;52.134;5.596;2023-07-13T08:54:16;25.88;;;9.52;;
19205;SDS011;59358;52.134;5.596;2023-07-13T08:56:47;13.55;;;7.88;;
19205;SDS011;59358;52.134;5.596;2023-07-13T08:59:18;21.63;;;8.75;;
19205;SDS011;59358;52.134;5.596;2023-07-13T09:01:52;17.05;;;7.20;;
19205;SDS011;59358;52.134;5.596;2023-07-13T09:04:29;7.75;;;4.90;;
19205;SDS011;59358;52.134;5.596;2023-07-13T09:07:07;6.45;;;2.92;;
19205;SDS011;59358;52.134;5.596;2023-07-13T09:09:44;5.50;;;2.65;;
19205;SDS011;59358;52.134;5.596;2023-07-13T09:12:22;4.47;;;2.72;;
19205;SDS011;59358;52.134;5.596;2023-07-13T09:14:54;5.60;;;2.40;;
19205;SDS011;59358;52.134;5.596;2023-07-13T09:17:25;6.05;;;3.13;;
19205;SDS011;59358;52.134;5.596;2023-07-13T09:20:00;6.47;;;2.95;;
19205;SDS011;59358;52.134;5.596;2023-07-13T09:22:33;6.95;;;3.03;;
19205;SDS011;59358;52.134;5.596;2023-07-13T09:25:05;6.15;;;3.85;;
19205;SDS011;59358;52.134;5.596;2023-07-13T09:27:43;7.70;;;3.20;;
19205;SDS011;59358;52.134;5.596;2023-07-13T09:30:23;7.88;;;3.28;;
19205;SDS011;59358;52.134;5.596;2023-07-13T09:32:57;8.63;;;4.07;;
19205;SDS011;59358;52.134;5.596;2023-07-13T09:35:27;8.45;;;3.90;;
19205;SDS011;59358;52.134;5.596;2023-07-13T09:38:01;9.95;;;3.97;;
19205;SDS011;59358;52.134;5.596;2023-07-13T09:40:40;11.43;;;3.65;;
19205;SDS011;59358;52.134;5.596;2023-07-13T09:43:24;9.10;;;4.03;;
19205;SDS011;59358;52.134;5.596;2023-07-13T09:45:53;10.88;;;3.53;;
19205;SDS011;59358;52.134;5.596;2023-07-13T09:48:21;8.27;;;3.42;;
19205;SDS011;59358;52.134;5.596;2023-07-13T09:50:51;9.45;;;3.63;;
19205;SDS011;59358;52.134;5.596;2023-07-13T09:53:21;9.60;;;3.33;;
19205;SDS011;59358;52.134;5.596;2023-07-13T09:55:48;7.40;;;3.40;;
19205;SDS011;59358;52.134;5.596;2023-07-13T09:58:17;10.18;;;4.10;;
19205;SDS011;59358;52.134;5.596;2023-07-13T10:00:54;6.22;;;3.15;;
19205;SDS011;59358;52.134;5.596;2023-07-13T10:03:24;6.25;;;3.35;;
19205;SDS011;59358;52.134;5.596;2023-07-13T10:05:54;8.07;;;3.08;;
19205;SDS011;59358;52.134;5.596;2023-07-13T10:08:28;7.43;;;3.78;;
19205;SDS011;59358;52.134;5.596;2023-07-13T10:10:58;10.65;;;4.68;;
19205;SDS011;59358;52.134;5.596;2023-07-13T10:13:27;8.55;;;3.63;;
19205;SDS011;59358;52.134;5.596;2023-07-13T10:15:57;13.23;;;5.47;;
19205;SDS011;59358;52.134;5.596;2023-07-13T10:18:26;10.98;;;3.85;;
19205;SDS011;59358;52.134;5.596;2023-07-13T10:21:00;7.35;;;3.28;;
19205;SDS011;59358;52.134;5.596;2023-07-13T10:23:37;6.57;;;3.80;;
19205;SDS011;59358;52.134;5.596;2023-07-13T10:26:04;7.15;;;4.68;;
19205;SDS011;59358;52.134;5.596;2023-07-13T10:28:39;6.97;;;4.57;;
19205;SDS011;59358;52.134;5.596;2023-07-13T10:31:10;13.95;;;8.10;;
19205;SDS011;59358;52.134;5.596;2023-07-13T10:33:40;15.10;;;7.47;;
19205;SDS011;59358;52.134;5.596;2023-07-13T10:36:12;11.38;;;8.38;;
19205;SDS011;59358;52.134;5.596;2023-07-13T10:38:41;10.07;;;7.57;;
19205;SDS011;59358;52.134;5.596;2023-07-13T10:41:11;8.27;;;5.40;;
19205;SDS011;59358;52.134;5.596;2023-07-13T10:43:43;9.38;;;5.47;;
19205;SDS011;59358;52.134;5.596;2023-07-13T10:46:15;6.80;;;4.82;;
19205;SDS011;59358;52.134;5.596;2023-07-13T10:48:45;6.10;;;4.40;;
19205;SDS011;59358;52.134;5.596;2023-07-13T10:51:17;9.95;;;6.65;;
19205;SDS011;59358;52.134;5.596;2023-07-13T10:53:47;7.50;;;6.25;;
19205;SDS011;59358;52.134;5.596;2023-07-13T10:56:34;11.57;;;5.57;;
19205;SDS011;59358;52.134;5.596;2023-07-13T10:59:02;11.07;;;3.92;;
19205;SDS011;59358;52.134;5.596;2023-07-13T11:01:40;9.75;;;4.95;;
19205;SDS011;59358;52.134;5.596;2023-07-13T11:04:14;6.53;;;4.50;;
19205;SDS011;59358;52.134;5.596;2023-07-13T11:06:43;8.68;;;4.25;;
19205;SDS011;59358;52.134;5.596;2023-07-13T11:09:19;4.88;;;3.55;;
19205;SDS011;59358;52.134;5.596;2023-07-13T11:11:58;5.20;;;3.67;;
19205;SDS011;59358;52.134;5.596;2023-07-13T11:14:27;7.10;;;3.72;;
19205;SDS011;59358;52.134;5.596;2023-07-13T11:17:00;7.93;;;3.75;;
19205;SDS011;59358;52.134;5.596;2023-07-13T11:20:07;9.13;;;4.28;;
19205;SDS011;59358;52.134;5.596;2023-07-13T11:22:46;5.57;;;3.30;;
19205;SDS011;59358;52.134;5.596;2023-07-13T11:25:25;7.47;;;3.10;;
19205;SDS011;59358;52.134;5.596;2023-07-13T11:28:05;3.60;;;2.83;;
19205;SDS011;59358;52.134;5.596;2023-07-13T11:30:43;4.82;;;2.95;;
19205;SDS011;59358;52.134;5.596;2023-07-13T11:33:16;5.25;;;2.88;;
19205;SDS011;59358;52.134;5.596;2023-07-13T11:35:50;4.82;;;2.75;;
19205;SDS011;59358;52.134;5.596;2023-07-13T11:38:22;7.47;;;3.00;;
19205;SDS011;59358;52.134;5.596;2023-07-13T11:40:56;5.22;;;2.97;;
19205;SDS011;59358;52.134;5.596;2023-07-13T11:43:28;5.90;;;2.83;;
19205;SDS011;59358;52.134;5.596;2023-07-13T11:45:55;5.28;;;2.67;;
19205;SDS011;59358;52.134;5.596;2023-07-13T11:48:23;6.35;;;3.20;;
19205;SDS011;59358;52.134;5.596;2023-07-13T11:50:57;5.90;;;3.00;;
19205;SDS011;59358;52.134;5.596;2023-07-13T11:53:28;7.13;;;3.78;;
19205;SDS011;59358;52.134;5.596;2023-07-13T11:56:00;7.28;;;3.92;;
19205;SDS011;59358;52.134;5.596;2023-07-13T11:58:27;10.95;;;4.30;;
19205;SDS011;59358;52.134;5.596;2023-07-13T12:00:55;9.00;;;4.45;;
19205;SDS011;59358;52.134;5.596;2023-07-13T12:03:26;12.68;;;5.22;;
19205;SDS011;59358;52.134;5.596;2023-07-13T12:05:55;14.55;;;5.38;;
19205;SDS011;59358;52.134;5.596;2023-07-13T12:08:24;8.85;;;4.88;;
19205;SDS011;59358;52.134;5.596;2023-07-13T12:10:58;8.65;;;4.07;;
19205;SDS011;59358;52.134;5.596;2023-07-13T12:13:26;6.50;;;4.25;;
19205;SDS011;59358;52.134;5.596;2023-07-13T12:15:55;10.48;;;5.82;;
19205;SDS011;59358;52.134;5.596;2023-07-13T12:18:23;11.70;;;6.10;;
19205;SDS011;59358;52.134;5.596;2023-07-13T12:20:57;8.40;;;5.68;;
19205;SDS011;59358;52.134;5.596;2023-07-13T12:23:25;10.98;;;5.57;;
19205;SDS011;59358;52.134;5.596;2023-07-13T12:25:58;12.18;;;6.03;;
19205;SDS011;59358;52.134;5.596;2023-07-13T12:28:31;10.18;;;5.47;;
19205;SDS011;59358;52.134;5.596;2023-07-13T12:31:02;9.05;;;5.18;;
19205;SDS011;59358;52.134;5.596;2023-07-13T12:33:31;10.90;;;5.30;;
19205;SDS011;59358;52.134;5.596;2023-07-13T12:36:00;11.27;;;6.07;;
19205;SDS011;59358;52.134;5.596;2023-07-13T12:38:29;8.52;;;5.55;;
19205;SDS011;59358;52.134;5.596;2023-07-13T12:40:59;9.23;;;4.97;;
19205;SDS011;59358;52.134;5.596;2023-07-13T12:43:28;13.63;;;4.57;;
19205;SDS011;59358;52.134;5.596;2023-07-13T12:46:03;7.70;;;4.43;;
19205;SDS011;59358;52.134;5.596;2023-07-13T12:48:37;11.68;;;4.85;;
19205;SDS011;59358;52.134;5.596;2023-07-13T12:51:08;10.93;;;5.15;;
19205;SDS011;59358;52.134;5.596;2023-07-13T12:53:38;12.85;;;5.60;;
19205;SDS011;59358;52.134;5.596;2023-07-13T12:56:11;10.52;;;4.95;;
19205;SDS011;59358;52.134;5.596;2023-07-13T12:58:45;9.20;;;5.25;;
19205;SDS011;59358;52.134;5.596;2023-07-13T13:01:19;9.95;;;5.80;;
19205;SDS011;59358;52.134;5.596;2023-07-13T13:03:48;13.23;;;5.15;;
19205;SDS011;59358;52.134;5.596;2023-07-13T13:06:21;12.68;;;4.63;;
19205;SDS011;59358;52.134;5.596;2023-07-13T13:08:51;6.82;;;3.85;;
19205;SDS011;59358;52.134;5.596;2023-07-13T13:11:21;11.10;;;4.05;;
19205;SDS011;59358;52.134;5.596;2023-07-13T13:13:51;7.05;;;3.35;;
19205;SDS011;59358;52.134;5.596;2023-07-13T13:16:20;7.90;;;3.67;;
19205;SDS011;59358;52.134;5.596;2023-07-13T13:18:48;10.20;;;3.33;;
19205;SDS011;59358;52.134;5.596;2023-07-13T13:21:16;8.98;;;3.83;;
19205;SDS011;59358;52.134;5.596;2023-07-13T13:23:44;11.32;;;4.03;;
19205;SDS011;59358;52.134;5.596;2023-07-13T13:26:11;10.05;;;3.72;;
19205;SDS011;59358;52.134;5.596;2023-07-13T13:28:42;5.65;;;3.00;;
19205;SDS011;59358;52.134;5.596;2023-07-13T13:31:10;5.63;;;3.30;;
19205;SDS011;59358;52.134;5.596;2023-07-13T13:33:39;5.65;;;3.05;;
19205;SDS011;59358;52.134;5.596;2023-07-13T13:36:12;4.57;;;2.65;;
19205;SDS011;59358;52.134;5.596;2023-07-13T13:38:42;6.68;;;3.40;;
19205;SDS011;59358;52.134;5.596;2023-07-13T13:41:10;6.13;;;3.03;;
19205;SDS011;59358;52.134;5.596;2023-07-13T13:43:38;8.43;;;3.90;;
19205;SDS011;59358;52.134;5.596;2023-07-13T13:46:13;6.30;;;3.28;;
19205;SDS011;59358;52.134;5.596;2023-07-13T13:48:44;6.45;;;3.08;;
19205;SDS011;59358;52.134;5.596;2023-07-13T13:51:13;8.07;;;3.10;;
19205;SDS011;59358;52.134;5.596;2023-07-13T13:53:42;9.23;;;3.42;;
19205;SDS011;59358;52.134;5.596;2023-07-13T13:56:09;7.82;;;3.58;;
19205;SDS011;59358;52.134;5.596;2023-07-13T13:58:36;5.32;;;3.33;;
19205;SDS011;59358;52.134;5.596;2023-07-13T14:01:03;5.88;;;3.00;;
19205;SDS011;59358;52.134;5.596;2023-07-13T14:03:34;7.30;;;3.55;;
19205;SDS011;59358;52.134;5.596;2023-07-13T14:06:02;3.90;;;3.25;;
19205;SDS011;59358;52.134;5.596;2023-07-13T14:08:30;8.35;;;3.30;;
19205;SDS011;59358;52.134;5.596;2023-07-13T14:10:57;6.95;;;3.08;;
19205;SDS011;59358;52.134;5.596;2023-07-13T14:13:26;6.47;;;3.08;;
19205;SDS011;59358;52.134;5.596;2023-07-13T14:15:58;5.55;;;3.15;;
19205;SDS011;59358;52.134;5.596;2023-07-13T14:18:25;5.30;;;3.35;;
19205;SDS011;59358;52.134;5.596;2023-07-13T14:20:54;5.60;;;3.08;;
19205;SDS011;59358;52.134;5.596;2023-07-13T14:23:21;7.05;;;3.13;;
19205;SDS011;59358;52.134;5.596;2023-07-13T14:25:48;5.43;;;2.97;;
19205;SDS011;59358;52.134;5.596;2023-07-13T14:28:21;6.35;;;3.47;;
19205;SDS011;59358;52.134;5.596;2023-07-13T14:30:50;8.27;;;3.70;;
19205;SDS011;59358;52.134;5.596;2023-07-13T14:33:17;5.50;;;3.08;;
19205;SDS011;59358;52.134;5.596;2023-07-13T14:35:44;4.18;;;3.03;;
19205;SDS011;59358;52.134;5.596;2023-07-13T14:38:15;4.97;;;3.10;;
19205;SDS011;59358;52.134;5.596;2023-07-13T14:40:43;6.50;;;3.45;;
19205;SDS011;59358;52.134;5.596;2023-07-13T14:43:11;7.85;;;3.38;;
19205;SDS011;59358;52.134;5.596;2023-07-13T14:45:40;7.10;;;3.35;;
19205;SDS011;59358;52.134;5.596;2023-07-13T14:48:14;7.50;;;3.13;;